sensor_id;sensor_type;location;lat;lon;timestamp;P1;durP1;ratioP1;P2;durP2;ratioP2
50126;SDS011;36024;47.974;16.398;2023-07-02T00:02:17;5.03;;;3.83;;
50126;SDS011;36024;47.974;16.398;2023-07-02T00:04:45;4.70;;;3.70;;
50126;SDS011;36024;47.974;16.398;2023-07-02T00:07:12;3.97;;;3.40;;
50126;SDS011;36024;47.974;16.398;2023-07-02T00:09:41;3.30;;;3.00;;
50126;SDS011;36024;47.974;16.398;2023-07-02T00:12:08;4.67;;;3.37;;
50126;SDS011;36024;47.974;16.398;2023-07-02T00:14:35;3.40;;;3.10;;
50126;SDS011;36024;47.974;16.398;2023-07-02T00:17:03;3.80;;;3.03;;
50126;SDS011;36024;47.974;16.398;2023-07-02T00:19:30;3.23;;;2.93;;
50126;SDS011;36024;47.974;16.398;2023-07-02T00:21:57;3.67;;;3.27;;
50126;SDS011;36024;47.974;16.398;2023-07-02T00:24:24;4.90;;;3.10;;
50126;SDS011;36024;47.974;16.398;2023-07-02T00:26:51;3.17;;;2.90;;
50126;SDS011;36024;47.974;16.398;2023-07-02T00:29:17;4.00;;;2.93;;
50126;SDS011;36024;47.974;16.398;2023-07-02T00:31:44;3.17;;;2.87;;
50126;SDS011;36024;47.974;16.398;2023-07-02T00:34:11;3.83;;;2.87;;
50126;SDS011;36024;47.974;16.398;2023-07-02T00:36:41;3.77;;;3.10;;
50126;SDS011;36024;47.974;16.398;2023-07-02T00:39:09;3.23;;;2.67;;
50126;SDS011;36024;47.974;16.398;2023-07-02T00:41:35;4.13;;;2.87;;
50126;SDS011;36024;47.974;16.398;2023-07-02T00:44:02;4.67;;;2.57;;
50126;SDS011;36024;47.974;16.398;2023-07-02T00:46:29;3.40;;;2.70;;
50126;SDS011;36024;47.974;16.398;2023-07-02T00:48:57;3.13;;;2.90;;
50126;SDS011;36024;47.974;16.398;2023-07-02T00:51:25;3.03;;;2.83;;
50126;SDS011;36024;47.974;16.398;2023-07-02T00:53:54;3.40;;;3.00;;
50126;SDS011;36024;47.974;16.398;2023-07-02T00:56:22;3.27;;;2.97;;
50126;SDS011;36024;47.974;16.398;2023-07-02T00:58:50;2.93;;;2.73;;
50126;SDS011;36024;47.974;16.398;2023-07-02T01:01:18;2.77;;;2.57;;
50126;SDS011;36024;47.974;16.398;2023-07-02T01:03:49;2.97;;;2.73;;
50126;SDS011;36024;47.974;16.398;2023-07-02T01:06:22;3.17;;;2.87;;
50126;SDS011;36024;47.974;16.398;2023-07-02T01:08:55;3.60;;;2.40;;
50126;SDS011;36024;47.974;16.398;2023-07-02T01:11:27;2.60;;;2.40;;
50126;SDS011;36024;47.974;16.398;2023-07-02T01:13:56;3.13;;;2.77;;
50126;SDS011;36024;47.974;16.398;2023-07-02T01:16:29;3.10;;;2.70;;
50126;SDS011;36024;47.974;16.398;2023-07-02T01:18:59;2.87;;;2.67;;
50126;SDS011;36024;47.974;16.398;2023-07-02T01:21:31;2.93;;;2.73;;
50126;SDS011;36024;47.974;16.398;2023-07-02T01:23:59;3.10;;;2.80;;
50126;SDS011;36024;47.974;16.398;2023-07-02T01:26:31;2.60;;;2.40;;
50126;SDS011;36024;47.974;16.398;2023-07-02T01:29:16;2.67;;;2.40;;
50126;SDS011;36024;47.974;16.398;2023-07-02T01:31:44;3.03;;;2.70;;
50126;SDS011;36024;47.974;16.398;2023-07-02T01:34:11;3.70;;;2.73;;
50126;SDS011;36024;47.974;16.398;2023-07-02T01:36:39;3.03;;;2.67;;
50126;SDS011;36024;47.974;16.398;2023-07-02T01:39:06;2.67;;;2.47;;
50126;SDS011;36024;47.974;16.398;2023-07-02T01:41:49;2.70;;;2.47;;
50126;SDS011;36024;47.974;16.398;2023-07-02T01:44:17;2.47;;;2.27;;
50126;SDS011;36024;47.974;16.398;2023-07-02T01:46:44;2.57;;;2.37;;
50126;SDS011;36024;47.974;16.398;2023-07-02T01:49:15;3.73;;;2.43;;
50126;SDS011;36024;47.974;16.398;2023-07-02T01:51:48;2.90;;;2.60;;
50126;SDS011;36024;47.974;16.398;2023-07-02T01:54:19;2.37;;;2.10;;
50126;SDS011;36024;47.974;16.398;2023-07-02T01:56:46;2.47;;;2.30;;
50126;SDS011;36024;47.974;16.398;2023-07-02T01:59:13;2.77;;;2.57;;
50126;SDS011;36024;47.974;16.398;2023-07-02T02:01:39;2.93;;;2.63;;
50126;SDS011;36024;47.974;16.398;2023-07-02T02:04:07;2.90;;;2.60;;
50126;SDS011;36024;47.974;16.398;2023-07-02T02:06:34;2.97;;;2.47;;
50126;SDS011;36024;47.974;16.398;2023-07-02T02:09:01;2.70;;;2.50;;
50126;SDS011;36024;47.974;16.398;2023-07-02T02:11:34;2.50;;;2.30;;
50126;SDS011;36024;47.974;16.398;2023-07-02T02:14:01;2.80;;;2.53;;
50126;SDS011;36024;47.974;16.398;2023-07-02T02:16:27;2.90;;;2.37;;
50126;SDS011;36024;47.974;16.398;2023-07-02T02:18:54;2.30;;;2.10;;
50126;SDS011;36024;47.974;16.398;2023-07-02T02:21:21;3.20;;;2.53;;
50126;SDS011;36024;47.974;16.398;2023-07-02T02:23:48;2.70;;;2.50;;
50126;SDS011;36024;47.974;16.398;2023-07-02T02:26:15;2.70;;;2.50;;
50126;SDS011;36024;47.974;16.398;2023-07-02T02:28:42;2.57;;;2.37;;
50126;SDS011;36024;47.974;16.398;2023-07-02T02:31:09;2.37;;;2.17;;
50126;SDS011;36024;47.974;16.398;2023-07-02T02:33:36;2.73;;;2.33;;
50126;SDS011;36024;47.974;16.398;2023-07-02T02:36:03;2.80;;;2.60;;
50126;SDS011;36024;47.974;16.398;2023-07-02T02:38:30;2.70;;;2.37;;
50126;SDS011;36024;47.974;16.398;2023-07-02T02:40:59;3.27;;;2.50;;
50126;SDS011;36024;47.974;16.398;2023-07-02T02:43:29;2.60;;;2.37;;
50126;SDS011;36024;47.974;16.398;2023-07-02T02:45:56;2.53;;;2.33;;
50126;SDS011;36024;47.974;16.398;2023-07-02T02:48:23;2.70;;;2.50;;
50126;SDS011;36024;47.974;16.398;2023-07-02T02:50:50;2.80;;;2.60;;
50126;SDS011;36024;47.974;16.398;2023-07-02T02:53:17;2.60;;;2.40;;
50126;SDS011;36024;47.974;16.398;2023-07-02T02:55:43;3.17;;;2.87;;
50126;SDS011;36024;47.974;16.398;2023-07-02T02:58:10;3.33;;;2.60;;
50126;SDS011;36024;47.974;16.398;2023-07-02T03:00:37;2.80;;;2.60;;
50126;SDS011;36024;47.974;16.398;2023-07-02T03:03:04;2.90;;;2.53;;
50126;SDS011;36024;47.974;16.398;2023-07-02T03:05:35;3.07;;;2.77;;
50126;SDS011;36024;47.974;16.398;2023-07-02T03:08:02;2.70;;;2.50;;
50126;SDS011;36024;47.974;16.398;2023-07-02T03:10:29;2.60;;;2.40;;
50126;SDS011;36024;47.974;16.398;2023-07-02T03:12:56;2.83;;;2.63;;
50126;SDS011;36024;47.974;16.398;2023-07-02T03:15:22;4.00;;;3.00;;
50126;SDS011;36024;47.974;16.398;2023-07-02T03:17:49;3.00;;;2.70;;
50126;SDS011;36024;47.974;16.398;2023-07-02T03:20:15;2.90;;;2.70;;
50126;SDS011;36024;47.974;16.398;2023-07-02T03:22:43;3.03;;;2.83;;
50126;SDS011;36024;47.974;16.398;2023-07-02T03:25:09;3.00;;;2.80;;
50126;SDS011;36024;47.974;16.398;2023-07-02T03:27:36;3.57;;;3.03;;
50126;SDS011;36024;47.974;16.398;2023-07-02T03:30:03;2.90;;;2.70;;
50126;SDS011;36024;47.974;16.398;2023-07-02T03:32:30;3.30;;;3.03;;
50126;SDS011;36024;47.974;16.398;2023-07-02T03:34:57;2.93;;;2.73;;
50126;SDS011;36024;47.974;16.398;2023-07-02T03:37:24;3.10;;;2.80;;
50126;SDS011;36024;47.974;16.398;2023-07-02T03:39:50;3.17;;;2.87;;
50126;SDS011;36024;47.974;16.398;2023-07-02T03:42:17;2.80;;;2.60;;
50126;SDS011;36024;47.974;16.398;2023-07-02T03:44:44;4.00;;;3.00;;
50126;SDS011;36024;47.974;16.398;2023-07-02T03:47:10;4.30;;;2.87;;
50126;SDS011;36024;47.974;16.398;2023-07-02T03:49:39;4.00;;;2.87;;
50126;SDS011;36024;47.974;16.398;2023-07-02T03:52:05;2.80;;;2.60;;
50126;SDS011;36024;47.974;16.398;2023-07-02T03:54:32;2.77;;;2.57;;
50126;SDS011;36024;47.974;16.398;2023-07-02T03:56:59;3.23;;;2.80;;
50126;SDS011;36024;47.974;16.398;2023-07-02T03:59:26;3.57;;;3.00;;
50126;SDS011;36024;47.974;16.398;2023-07-02T04:01:52;3.20;;;2.90;;
50126;SDS011;36024;47.974;16.398;2023-07-02T04:04:19;3.33;;;2.77;;
50126;SDS011;36024;47.974;16.398;2023-07-02T04:06:46;2.63;;;2.43;;
50126;SDS011;36024;47.974;16.398;2023-07-02T04:09:13;3.57;;;2.80;;
50126;SDS011;36024;47.974;16.398;2023-07-02T04:11:39;5.17;;;3.10;;
50126;SDS011;36024;47.974;16.398;2023-07-02T04:14:06;3.13;;;2.60;;
50126;SDS011;36024;47.974;16.398;2023-07-02T04:16:32;2.80;;;2.60;;
50126;SDS011;36024;47.974;16.398;2023-07-02T04:18:59;4.90;;;2.90;;
50126;SDS011;36024;47.974;16.398;2023-07-02T04:21:26;3.23;;;2.50;;
50126;SDS011;36024;47.974;16.398;2023-07-02T04:23:53;2.90;;;2.70;;
50126;SDS011;36024;47.974;16.398;2023-07-02T04:26:20;3.08;;;2.78;;
50126;SDS011;36024;47.974;16.398;2023-07-02T04:29:07;2.85;;;2.65;;
50126;SDS011;36024;47.974;16.398;2023-07-02T04:31:33;5.90;;;2.70;;
50126;SDS011;36024;47.974;16.398;2023-07-02T04:34:00;2.60;;;2.40;;
50126;SDS011;36024;47.974;16.398;2023-07-02T04:36:27;3.10;;;2.50;;
50126;SDS011;36024;47.974;16.398;2023-07-02T04:38:55;3.10;;;2.80;;
50126;SDS011;36024;47.974;16.398;2023-07-02T04:41:21;2.90;;;2.60;;
50126;SDS011;36024;47.974;16.398;2023-07-02T04:43:48;3.00;;;2.70;;
50126;SDS011;36024;47.974;16.398;2023-07-02T04:46:15;2.95;;;2.50;;
50126;SDS011;36024;47.974;16.398;2023-07-02T04:48:41;3.85;;;2.40;;
50126;SDS011;36024;47.974;16.398;2023-07-02T04:51:08;3.22;;;2.50;;
50126;SDS011;36024;47.974;16.398;2023-07-02T04:53:35;2.70;;;2.50;;
50126;SDS011;36024;47.974;16.398;2023-07-02T04:56:03;2.53;;;2.33;;
50126;SDS011;36024;47.974;16.398;2023-07-02T04:58:33;3.08;;;2.40;;
50126;SDS011;36024;47.974;16.398;2023-07-02T05:01:00;3.08;;;2.00;;
50126;SDS011;36024;47.974;16.398;2023-07-02T05:03:27;2.10;;;2.00;;
50126;SDS011;36024;47.974;16.398;2023-07-02T05:05:53;3.95;;;2.17;;
50126;SDS011;36024;47.974;16.398;2023-07-02T05:08:20;2.53;;;2.20;;
50126;SDS011;36024;47.974;16.398;2023-07-02T05:10:47;1.85;;;1.75;;
50126;SDS011;36024;47.974;16.398;2023-07-02T05:13:14;1.98;;;1.88;;
50126;SDS011;36024;47.974;16.398;2023-07-02T05:15:41;3.03;;;1.90;;
50126;SDS011;36024;47.974;16.398;2023-07-02T05:18:09;2.00;;;1.80;;
50126;SDS011;36024;47.974;16.398;2023-07-02T05:20:35;2.10;;;1.60;;
50126;SDS011;36024;47.974;16.398;2023-07-02T05:23:02;3.38;;;1.60;;
50126;SDS011;36024;47.974;16.398;2023-07-02T05:25:28;2.72;;;1.65;;
50126;SDS011;36024;47.974;16.398;2023-07-02T05:27:55;1.88;;;1.65;;
50126;SDS011;36024;47.974;16.398;2023-07-02T05:30:22;1.63;;;1.52;;
50126;SDS011;36024;47.974;16.398;2023-07-02T05:32:48;1.40;;;1.30;;
50126;SDS011;36024;47.974;16.398;2023-07-02T05:35:15;1.50;;;1.40;;
50126;SDS011;36024;47.974;16.398;2023-07-02T05:37:42;1.57;;;1.47;;
50126;SDS011;36024;47.974;16.398;2023-07-02T05:40:09;1.95;;;1.45;;
50126;SDS011;36024;47.974;16.398;2023-07-02T05:42:38;1.55;;;1.45;;
50126;SDS011;36024;47.974;16.398;2023-07-02T05:45:05;2.03;;;1.30;;
50126;SDS011;36024;47.974;16.398;2023-07-02T05:47:32;3.50;;;1.40;;
50126;SDS011;36024;47.974;16.398;2023-07-02T05:49:59;2.00;;;1.35;;
50126;SDS011;36024;47.974;16.398;2023-07-02T05:52:26;1.40;;;1.27;;
50126;SDS011;36024;47.974;16.398;2023-07-02T05:54:52;2.58;;;1.30;;
50126;SDS011;36024;47.974;16.398;2023-07-02T05:57:19;1.45;;;1.35;;
50126;SDS011;36024;47.974;16.398;2023-07-02T05:59:45;2.15;;;1.20;;
50126;SDS011;36024;47.974;16.398;2023-07-02T06:02:12;2.17;;;1.30;;
50126;SDS011;36024;47.974;16.398;2023-07-02T06:04:39;1.60;;;1.50;;
50126;SDS011;36024;47.974;16.398;2023-07-02T06:07:05;1.50;;;1.40;;
50126;SDS011;36024;47.974;16.398;2023-07-02T06:09:32;1.50;;;1.40;;
50126;SDS011;36024;47.974;16.398;2023-07-02T06:11:59;1.50;;;1.40;;
50126;SDS011;36024;47.974;16.398;2023-07-02T06:14:25;1.50;;;1.40;;
50126;SDS011;36024;47.974;16.398;2023-07-02T06:16:53;1.60;;;1.50;;
50126;SDS011;36024;47.974;16.398;2023-07-02T06:19:23;1.60;;;1.50;;
50126;SDS011;36024;47.974;16.398;2023-07-02T06:21:49;1.50;;;1.40;;
50126;SDS011;36024;47.974;16.398;2023-07-02T06:24:16;1.67;;;1.20;;
50126;SDS011;36024;47.974;16.398;2023-07-02T06:26:43;1.30;;;1.20;;
50126;SDS011;36024;47.974;16.398;2023-07-02T06:29:09;1.30;;;1.20;;
50126;SDS011;36024;47.974;16.398;2023-07-02T06:31:36;1.17;;;1.00;;
50126;SDS011;36024;47.974;16.398;2023-07-02T06:34:03;1.40;;;1.30;;
50126;SDS011;36024;47.974;16.398;2023-07-02T06:36:30;1.05;;;1.05;;
50126;SDS011;36024;47.974;16.398;2023-07-02T06:38:56;1.15;;;1.13;;
50126;SDS011;36024;47.974;16.398;2023-07-02T06:41:23;1.75;;;1.20;;
50126;SDS011;36024;47.974;16.398;2023-07-02T06:43:50;1.30;;;1.17;;
50126;SDS011;36024;47.974;16.398;2023-07-02T06:46:17;1.00;;;1.00;;
50126;SDS011;36024;47.974;16.398;2023-07-02T06:48:44;1.02;;;1.00;;
50126;SDS011;36024;47.974;16.398;2023-07-02T06:51:10;1.33;;;1.20;;
50126;SDS011;36024;47.974;16.398;2023-07-02T06:53:41;1.25;;;1.15;;
50126;SDS011;36024;47.974;16.398;2023-07-02T06:56:08;1.73;;;1.58;;
50126;SDS011;36024;47.974;16.398;2023-07-02T06:58:35;1.73;;;1.30;;
50126;SDS011;36024;47.974;16.398;2023-07-02T07:01:02;1.65;;;1.55;;
50126;SDS011;36024;47.974;16.398;2023-07-02T07:03:29;1.45;;;1.38;;
50126;SDS011;36024;47.974;16.398;2023-07-02T07:05:55;1.48;;;1.38;;
50126;SDS011;36024;47.974;16.398;2023-07-02T07:08:22;1.48;;;1.38;;
50126;SDS011;36024;47.974;16.398;2023-07-02T07:10:49;1.83;;;1.58;;
50126;SDS011;36024;47.974;16.398;2023-07-02T07:13:16;1.70;;;1.60;;
50126;SDS011;36024;47.974;16.398;2023-07-02T07:15:43;1.73;;;1.50;;
50126;SDS011;36024;47.974;16.398;2023-07-02T07:18:10;1.60;;;1.50;;
50126;SDS011;36024;47.974;16.398;2023-07-02T07:20:38;2.20;;;1.45;;
50126;SDS011;36024;47.974;16.398;2023-07-02T07:23:05;1.63;;;1.52;;
50126;SDS011;36024;47.974;16.398;2023-07-02T07:25:32;1.65;;;1.55;;
50126;SDS011;36024;47.974;16.398;2023-07-02T07:27:59;2.65;;;1.58;;
50126;SDS011;36024;47.974;16.398;2023-07-02T07:30:26;1.85;;;1.75;;
50126;SDS011;36024;47.974;16.398;2023-07-02T07:32:53;1.88;;;1.77;;
50126;SDS011;36024;47.974;16.398;2023-07-02T07:35:20;1.88;;;1.77;;
50126;SDS011;36024;47.974;16.398;2023-07-02T07:37:48;2.10;;;1.50;;
50126;SDS011;36024;47.974;16.398;2023-07-02T07:40:14;4.20;;;1.80;;
50126;SDS011;36024;47.974;16.398;2023-07-02T07:42:41;2.13;;;1.98;;
50126;SDS011;36024;47.974;16.398;2023-07-02T07:45:11;1.77;;;1.67;;
50126;SDS011;36024;47.974;16.398;2023-07-02T07:47:38;2.47;;;2.30;;
50126;SDS011;36024;47.974;16.398;2023-07-02T07:50:06;2.53;;;2.00;;
50126;SDS011;36024;47.974;16.398;2023-07-02T07:52:39;2.22;;;2.03;;
50126;SDS011;36024;47.974;16.398;2023-07-02T07:55:06;2.08;;;1.98;;
50126;SDS011;36024;47.974;16.398;2023-07-02T07:57:33;2.58;;;2.08;;
50126;SDS011;36024;47.974;16.398;2023-07-02T08:00:02;2.22;;;2.03;;
50126;SDS011;36024;47.974;16.398;2023-07-02T08:02:41;2.97;;;2.15;;
50126;SDS011;36024;47.974;16.398;2023-07-02T08:05:08;2.22;;;1.92;;
50126;SDS011;36024;47.974;16.398;2023-07-02T08:07:36;2.13;;;2.00;;
50126;SDS011;36024;47.974;16.398;2023-07-02T08:10:02;2.13;;;1.90;;
50126;SDS011;36024;47.974;16.398;2023-07-02T08:12:29;4.05;;;2.70;;
50126;SDS011;36024;47.974;16.398;2023-07-02T08:14:56;2.63;;;2.42;;
50126;SDS011;36024;47.974;16.398;2023-07-02T08:17:23;2.25;;;2.05;;
50126;SDS011;36024;47.974;16.398;2023-07-02T08:19:49;2.75;;;2.55;;
50126;SDS011;36024;47.974;16.398;2023-07-02T08:22:16;2.30;;;2.10;;
50126;SDS011;36024;47.974;16.398;2023-07-02T08:24:43;2.25;;;2.13;;
50126;SDS011;36024;47.974;16.398;2023-07-02T08:27:10;2.22;;;2.10;;
50126;SDS011;36024;47.974;16.398;2023-07-02T08:29:40;2.40;;;2.20;;
50126;SDS011;36024;47.974;16.398;2023-07-02T08:32:06;2.10;;;1.90;;
50126;SDS011;36024;47.974;16.398;2023-07-02T08:34:33;1.95;;;1.85;;
50126;SDS011;36024;47.974;16.398;2023-07-02T08:37:00;1.90;;;1.80;;
50126;SDS011;36024;47.974;16.398;2023-07-02T08:39:27;2.10;;;1.90;;
50126;SDS011;36024;47.974;16.398;2023-07-02T08:41:53;2.03;;;1.92;;
50126;SDS011;36024;47.974;16.398;2023-07-02T08:44:20;2.13;;;1.92;;
50126;SDS011;36024;47.974;16.398;2023-07-02T08:46:48;2.55;;;1.90;;
50126;SDS011;36024;47.974;16.398;2023-07-02T08:49:17;2.72;;;1.90;;
50126;SDS011;36024;47.974;16.398;2023-07-02T08:51:44;1.90;;;1.80;;
50126;SDS011;36024;47.974;16.398;2023-07-02T08:54:12;2.63;;;1.90;;
50126;SDS011;36024;47.974;16.398;2023-07-02T08:56:39;2.63;;;1.70;;
50126;SDS011;36024;47.974;16.398;2023-07-02T08:59:09;1.80;;;1.70;;
50126;SDS011;36024;47.974;16.398;2023-07-02T09:01:54;2.00;;;1.83;;
50126;SDS011;36024;47.974;16.398;2023-07-02T09:04:21;2.05;;;1.67;;
50126;SDS011;36024;47.974;16.398;2023-07-02T09:09:32;2.08;;;1.98;;
50126;SDS011;36024;47.974;16.398;2023-07-02T09:11:59;2.00;;;1.90;;
50126;SDS011;36024;47.974;16.398;2023-07-02T09:14:27;2.42;;;1.85;;
50126;SDS011;36024;47.974;16.398;2023-07-02T09:17:07;1.92;;;1.83;;
50126;SDS011;36024;47.974;16.398;2023-07-02T09:19:36;2.25;;;2.15;;
50126;SDS011;36024;47.974;16.398;2023-07-02T09:22:03;1.90;;;1.80;;
50126;SDS011;36024;47.974;16.398;2023-07-02T09:24:30;2.17;;;2.00;;
50126;SDS011;36024;47.974;16.398;2023-07-02T09:26:58;2.03;;;1.92;;
50126;SDS011;36024;47.974;16.398;2023-07-02T09:29:26;2.13;;;2.03;;
50126;SDS011;36024;47.974;16.398;2023-07-02T09:31:58;2.20;;;2.05;;
50126;SDS011;36024;47.974;16.398;2023-07-02T09:34:35;2.38;;;2.17;;
50126;SDS011;36024;47.974;16.398;2023-07-02T09:37:07;2.20;;;2.10;;
50126;SDS011;36024;47.974;16.398;2023-07-02T09:39:34;2.20;;;1.77;;
50126;SDS011;36024;47.974;16.398;2023-07-02T09:42:05;2.20;;;2.00;;
50126;SDS011;36024;47.974;16.398;2023-07-02T09:44:33;2.15;;;2.00;;
50126;SDS011;36024;47.974;16.398;2023-07-02T09:49:36;2.70;;;2.50;;
50126;SDS011;36024;47.974;16.398;2023-07-02T09:52:04;3.50;;;3.30;;
50126;SDS011;36024;47.974;16.398;2023-07-02T09:54:33;2.75;;;2.20;;
50126;SDS011;36024;47.974;16.398;2023-07-02T09:57:00;2.00;;;1.90;;
50126;SDS011;36024;47.974;16.398;2023-07-02T09:59:27;2.42;;;2.03;;
50126;SDS011;36024;47.974;16.398;2023-07-02T10:01:54;2.35;;;2.00;;
50126;SDS011;36024;47.974;16.398;2023-07-02T10:04:21;2.03;;;1.90;;
50126;SDS011;36024;47.974;16.398;2023-07-02T10:09:20;2.10;;;2.00;;
50126;SDS011;36024;47.974;16.398;2023-07-02T10:11:47;1.92;;;1.70;;
50126;SDS011;36024;47.974;16.398;2023-07-02T10:14:14;1.88;;;1.77;;
50126;SDS011;36024;47.974;16.398;2023-07-02T10:19:17;2.33;;;2.17;;
50126;SDS011;36024;47.974;16.398;2023-07-02T10:21:44;2.25;;;1.73;;
50126;SDS011;36024;47.974;16.398;2023-07-02T10:24:17;2.05;;;1.95;;
50126;SDS011;36024;47.974;16.398;2023-07-02T10:26:57;2.20;;;2.00;;
50126;SDS011;36024;47.974;16.398;2023-07-02T10:29:25;2.08;;;1.95;;
50126;SDS011;36024;47.974;16.398;2023-07-02T10:31:52;2.42;;;2.22;;
50126;SDS011;36024;47.974;16.398;2023-07-02T10:34:30;2.50;;;2.30;;
50126;SDS011;36024;47.974;16.398;2023-07-02T10:36:56;3.35;;;2.10;;
50126;SDS011;36024;47.974;16.398;2023-07-02T10:39:24;2.53;;;2.20;;
50126;SDS011;36024;47.974;16.398;2023-07-02T10:41:51;2.30;;;2.10;;
50126;SDS011;36024;47.974;16.398;2023-07-02T10:44:17;1.90;;;1.80;;
50126;SDS011;36024;47.974;16.398;2023-07-02T10:46:47;2.45;;;1.98;;
50126;SDS011;36024;47.974;16.398;2023-07-02T10:49:16;2.30;;;2.10;;
50126;SDS011;36024;47.974;16.398;2023-07-02T10:51:44;2.15;;;2.00;;
50126;SDS011;36024;47.974;16.398;2023-07-02T10:54:10;2.22;;;2.03;;
50126;SDS011;36024;47.974;16.398;2023-07-02T10:56:37;2.47;;;2.15;;
50126;SDS011;36024;47.974;16.398;2023-07-02T10:59:04;2.30;;;1.98;;
50126;SDS011;36024;47.974;16.398;2023-07-02T11:01:31;1.92;;;1.80;;
50126;SDS011;36024;47.974;16.398;2023-07-02T11:04:01;3.58;;;2.13;;
50126;SDS011;36024;47.974;16.398;2023-07-02T11:06:31;2.17;;;1.98;;
50126;SDS011;36024;47.974;16.398;2023-07-02T11:08:59;2.33;;;1.98;;
50126;SDS011;36024;47.974;16.398;2023-07-02T11:11:26;2.25;;;2.05;;
50126;SDS011;36024;47.974;16.398;2023-07-02T11:13:53;2.30;;;2.10;;
50126;SDS011;36024;47.974;16.398;2023-07-02T11:18:53;3.10;;;2.55;;
50126;SDS011;36024;47.974;16.398;2023-07-02T11:21:20;2.60;;;2.40;;
50126;SDS011;36024;47.974;16.398;2023-07-02T11:23:47;2.13;;;1.92;;
50126;SDS011;36024;47.974;16.398;2023-07-02T11:26:14;2.42;;;2.22;;
50126;SDS011;36024;47.974;16.398;2023-07-02T11:28:47;2.92;;;2.00;;
50126;SDS011;36024;47.974;16.398;2023-07-02T11:31:24;3.45;;;2.10;;
50126;SDS011;36024;47.974;16.398;2023-07-02T11:33:52;2.20;;;2.10;;
50126;SDS011;36024;47.974;16.398;2023-07-02T11:36:20;2.40;;;2.10;;
50126;SDS011;36024;47.974;16.398;2023-07-02T11:38:50;3.17;;;1.98;;
50126;SDS011;36024;47.974;16.398;2023-07-02T11:41:18;2.47;;;2.10;;
50126;SDS011;36024;47.974;16.398;2023-07-02T11:43:47;3.05;;;1.98;;
50126;SDS011;36024;47.974;16.398;2023-07-02T11:46:14;2.13;;;1.92;;
50126;SDS011;36024;47.974;16.398;2023-07-02T11:48:41;2.30;;;2.10;;
50126;SDS011;36024;47.974;16.398;2023-07-02T11:51:08;2.35;;;2.10;;
50126;SDS011;36024;47.974;16.398;2023-07-02T11:53:34;2.33;;;2.15;;
50126;SDS011;36024;47.974;16.398;2023-07-02T11:56:01;2.13;;;1.92;;
50126;SDS011;36024;47.974;16.398;2023-07-02T11:58:28;2.45;;;2.03;;
50126;SDS011;36024;47.974;16.398;2023-07-02T12:00:54;4.90;;;2.08;;
50126;SDS011;36024;47.974;16.398;2023-07-02T12:03:21;2.10;;;2.00;;
50126;SDS011;36024;47.974;16.398;2023-07-02T12:05:48;2.88;;;2.20;;
50126;SDS011;36024;47.974;16.398;2023-07-02T12:08:15;2.85;;;2.00;;
50126;SDS011;36024;47.974;16.398;2023-07-02T12:10:42;2.83;;;2.30;;
50126;SDS011;36024;47.974;16.398;2023-07-02T12:13:08;2.30;;;2.10;;
50126;SDS011;36024;47.974;16.398;2023-07-02T12:15:35;4.10;;;2.03;;
50126;SDS011;36024;47.974;16.398;2023-07-02T12:18:02;2.15;;;1.95;;
50126;SDS011;36024;47.974;16.398;2023-07-02T12:20:29;2.22;;;1.90;;
50126;SDS011;36024;47.974;16.398;2023-07-02T12:22:56;2.70;;;2.00;;
50126;SDS011;36024;47.974;16.398;2023-07-02T12:25:26;1.95;;;1.85;;
50126;SDS011;36024;47.974;16.398;2023-07-02T12:27:52;2.35;;;1.90;;
50126;SDS011;36024;47.974;16.398;2023-07-02T12:30:19;1.98;;;1.77;;
50126;SDS011;36024;47.974;16.398;2023-07-02T12:32:46;2.72;;;2.00;;
50126;SDS011;36024;47.974;16.398;2023-07-02T12:35:14;2.03;;;1.88;;
50126;SDS011;36024;47.974;16.398;2023-07-02T12:37:44;3.20;;;1.70;;
50126;SDS011;36024;47.974;16.398;2023-07-02T12:40:12;2.10;;;1.67;;
50126;SDS011;36024;47.974;16.398;2023-07-02T12:42:42;1.90;;;1.80;;
50126;SDS011;36024;47.974;16.398;2023-07-02T12:45:10;2.35;;;1.88;;
50126;SDS011;36024;47.974;16.398;2023-07-02T12:47:38;1.77;;;1.67;;
50126;SDS011;36024;47.974;16.398;2023-07-02T12:50:05;2.05;;;1.85;;
50126;SDS011;36024;47.974;16.398;2023-07-02T12:52:32;2.65;;;1.80;;
50126;SDS011;36024;47.974;16.398;2023-07-02T12:54:59;1.83;;;1.70;;
50126;SDS011;36024;47.974;16.398;2023-07-02T12:57:27;2.05;;;1.60;;
50126;SDS011;36024;47.974;16.398;2023-07-02T12:59:54;2.25;;;1.65;;
50126;SDS011;36024;47.974;16.398;2023-07-02T13:02:21;2.47;;;1.73;;
50126;SDS011;36024;47.974;16.398;2023-07-02T13:04:49;1.48;;;1.38;;
50126;SDS011;36024;47.974;16.398;2023-07-02T13:07:16;2.55;;;1.70;;
50126;SDS011;36024;47.974;16.398;2023-07-02T13:09:43;1.83;;;1.67;;
50126;SDS011;36024;47.974;16.398;2023-07-02T13:12:10;1.35;;;1.25;;
50126;SDS011;36024;47.974;16.398;2023-07-02T13:14:37;1.85;;;1.67;;
50126;SDS011;36024;47.974;16.398;2023-07-02T13:17:04;1.92;;;1.33;;
50126;SDS011;36024;47.974;16.398;2023-07-02T13:19:31;1.50;;;1.10;;
50126;SDS011;36024;47.974;16.398;2023-07-02T13:21:58;1.33;;;1.15;;
50126;SDS011;36024;47.974;16.398;2023-07-02T13:24:27;1.20;;;1.10;;
50126;SDS011;36024;47.974;16.398;2023-07-02T13:26:55;1.80;;;1.00;;
50126;SDS011;36024;47.974;16.398;2023-07-02T13:29:21;0.80;;;0.80;;
50126;SDS011;36024;47.974;16.398;2023-07-02T13:31:48;1.33;;;0.60;;
50126;SDS011;36024;47.974;16.398;2023-07-02T13:34:15;1.13;;;0.68;;
50126;SDS011;36024;47.974;16.398;2023-07-02T13:36:41;0.75;;;0.75;;
50126;SDS011;36024;47.974;16.398;2023-07-02T13:39:08;1.65;;;0.60;;
50126;SDS011;36024;47.974;16.398;2023-07-02T13:41:35;1.33;;;0.70;;
50126;SDS011;36024;47.974;16.398;2023-07-02T13:44:01;0.50;;;0.50;;
50126;SDS011;36024;47.974;16.398;2023-07-02T13:46:28;0.60;;;0.57;;
50126;SDS011;36024;47.974;16.398;2023-07-02T13:48:55;0.55;;;0.55;;
50126;SDS011;36024;47.974;16.398;2023-07-02T13:51:21;2.67;;;0.60;;
50126;SDS011;36024;47.974;16.398;2023-07-02T13:53:48;1.10;;;0.63;;
50126;SDS011;36024;47.974;16.398;2023-07-02T13:56:15;0.68;;;0.68;;
50126;SDS011;36024;47.974;16.398;2023-07-02T14:01:11;3.40;;;0.82;;
50126;SDS011;36024;47.974;16.398;2023-07-02T14:03:38;1.08;;;0.80;;
50126;SDS011;36024;47.974;16.398;2023-07-02T14:06:07;2.35;;;0.90;;
50126;SDS011;36024;47.974;16.398;2023-07-02T14:08:35;1.02;;;0.82;;
50126;SDS011;36024;47.974;16.398;2023-07-02T14:11:02;1.25;;;0.98;;
50126;SDS011;36024;47.974;16.398;2023-07-02T14:13:30;1.00;;;0.90;;
50126;SDS011;36024;47.974;16.398;2023-07-02T14:15:57;1.10;;;0.93;;
50126;SDS011;36024;47.974;16.398;2023-07-02T14:18:24;0.80;;;0.80;;
50126;SDS011;36024;47.974;16.398;2023-07-02T14:20:51;0.80;;;0.80;;
50126;SDS011;36024;47.974;16.398;2023-07-02T14:23:18;1.50;;;0.70;;
50126;SDS011;36024;47.974;16.398;2023-07-02T14:25:44;1.88;;;1.00;;
50126;SDS011;36024;47.974;16.398;2023-07-02T14:28:11;0.65;;;0.65;;
50126;SDS011;36024;47.974;16.398;2023-07-02T14:30:38;1.65;;;0.95;;
50126;SDS011;36024;47.974;16.398;2023-07-02T14:33:05;1.52;;;0.95;;
50126;SDS011;36024;47.974;16.398;2023-07-02T14:35:35;5.13;;;1.05;;
50126;SDS011;36024;47.974;16.398;2023-07-02T14:38:02;1.27;;;1.17;;
50126;SDS011;36024;47.974;16.398;2023-07-02T14:40:31;1.23;;;1.13;;
50126;SDS011;36024;47.974;16.398;2023-07-02T14:42:58;1.52;;;1.42;;
50126;SDS011;36024;47.974;16.398;2023-07-02T14:45:25;2.33;;;1.17;;
50126;SDS011;36024;47.974;16.398;2023-07-02T14:47:51;2.78;;;1.88;;
50126;SDS011;36024;47.974;16.398;2023-07-02T14:50:21;3.22;;;2.10;;
50126;SDS011;36024;47.974;16.398;2023-07-02T14:52:50;2.80;;;2.20;;